TimeCST,TemperatureF,Dew PointF,Humidity,Sea Level PressureIn,VisibilityMPH,Wind Direction,Wind SpeedMPH,Gust SpeedMPH,PrecipitationIn,Events,Conditions,WindDirDegrees,DateUTC
12:00 AM,62.6,62.6,100,30.30,6.2,Calm,Calm,-,N/A,,Scattered Clouds,0,2013-08-18 06:00:00
1:00 AM,62.6,62.6,100,30.27,6.2,NNE,3.5,-,N/A,,Scattered Clouds,30,2013-08-18 07:00:00
2:00 AM,64.4,62.6,94,30.27,6.2,NNE,4.6,-,N/A,,Mostly Cloudy,30,2013-08-18 08:00:00
3:00 AM,62.6,60.8,94,30.24,6.2,NNE,4.6,-,N/A,,Scattered Clouds,30,2013-08-18 09:00:00
4:00 AM,60.8,60.8,100,30.24,5.0,Calm,Calm,-,N/A,,Scattered Clouds,0,2013-08-18 10:00:00
5:00 AM,60.8,60.8,100,30.27,5.0,NNE,4.6,-,N/A,,Scattered Clouds,30,2013-08-18 11:00:00
6:00 AM,62,61,94,29.99,5,NNE,6.9,,,,Mist,30,2013-08-18 12:00:00
6:00 AM,62.6,60.8,94,30.27,5.0,NNE,6.9,-,N/A,,Scattered Clouds,30,2013-08-18 12:00:00
7:00 AM,62.6,60.8,94,30.27,6.2,NNE,6.9,-,N/A,,Scattered Clouds,30,2013-08-18 13:00:00
8:00 AM,64.4,60.8,88,30.30,6.2,NNE,4.6,-,N/A,,Mostly Cloudy,30,2013-08-18 14:00:00
9:00 AM,68.0,62.6,83,30.30,6.2,NNE,4.6,-,N/A,,Mostly Cloudy,30,2013-08-18 15:00:00
10:00 AM,69.8,62.6,78,30.30,6.2,NNE,4.6,-,N/A,,Mostly Cloudy,30,2013-08-18 16:00:00
11:00 AM,73.4,62.6,69,30.27,6.2,NNE,6.9,-,N/A,,Mostly Cloudy,30,2013-08-18 17:00:00
12:00 PM,74,63,60,29.95,25,NNE,6.9,,,,Partly Cloudy,30,2013-08-18 18:00:00
12:00 PM,73.4,62.6,69,30.27,6.2,NNE,6.9,-,N/A,,Mostly Cloudy,30,2013-08-18 18:00:00
1:00 PM,77.0,64.4,65,30.24,6.2,Variable,3.5,-,N/A,,Mostly Cloudy,0,2013-08-18 19:00:00
1:34 PM,-9999,-9999,N/A,-9999,6.2,NE,4.6,-,N/A,Thunderstorm,Thunderstorm,50,2013-08-18 19:34:00
2:00 PM,75.2,64.4,69,30.21,6.2,Variable,3.5,-,N/A,Rain-Thunderstorm,Light Thunderstorms and Rain,0,2013-08-18 20:00:00
3:00 PM,73.4,64.4,73,30.21,6.2,ENE,9.2,-,N/A,Thunderstorm,Thunderstorm,60,2013-08-18 21:00:00
3:28 PM,-9999,-9999,N/A,-9999,6.2,SSW,6.9,-,N/A,Thunderstorm,Thunderstorm,210,2013-08-18 21:28:00
4:00 PM,71.6,62.6,73,30.18,6.2,South,6.9,-,N/A,,Mostly Cloudy,180,2013-08-18 22:00:00
4:20 PM,-9999,-9999,N/A,-9999,5.0,SE,6.9,-,N/A,Rain,Light Rain,130,2013-08-18 22:20:00
5:00 PM,69.8,64.4,83,30.21,4.3,South,6.9,-,N/A,Rain-Thunderstorm,Light Thunderstorms and Rain,180,2013-08-18 23:00:00
6:00 PM,64,62,89,29.98,5,South,6.9,,,Rain-Thunderstorm,Thunderstorms and Rain,180,2013-08-19 00:00:00
6:00 PM,64.4,60.8,88,30.27,5.0,South,6.9,-,N/A,Rain-Thunderstorm,Light Thunderstorms and Rain,180,2013-08-19 00:00:00
7:00 PM,64.4,62.6,94,30.27,6.2,Variable,2.3,-,N/A,,Light Drizzle,0,2013-08-19 01:00:00
7:35 PM,-9999,-9999,N/A,-9999,6.2,SSW,4.6,-,N/A,,Mostly Cloudy,200,2013-08-19 01:35:00
8:00 PM,62.6,62.6,100,30.30,6.2,Calm,Calm,-,N/A,,Mostly Cloudy,0,2013-08-19 02:00:00
9:00 PM,64.4,62.6,94,30.30,6.2,NNE,4.6,-,N/A,,Mostly Cloudy,20,2013-08-19 03:00:00
10:00 PM,64.4,62.6,94,30.33,6.2,North,6.9,-,N/A,,Mostly Cloudy,360,2013-08-19 04:00:00
11:00 PM,64.4,62.6,94,30.33,6.2,NE,11.5,-,N/A,,Light Drizzle,40,2013-08-19 05:00:00
11:05 PM,-9999,-9999,N/A,-9999,6.2,NNE,9.2,-,N/A,,Overcast,20,2013-08-19 05:05:00